Time;durP1;ratioP1;P1;durP2;ratioP2;P2;SDS_P1;SDS_P2;PMS_P1;PMS_P2;Temp;Humidity;BMP_temperature;BMP_pressure;BME280_temperature;BME280_humidity;BME280_pressure;Samples;Min_cycle;Max_cycle;Signal;HPM_P1;HPM_P2
2022/02/09 00:02:04;;;;;;;3.07;2.30;;;;;;;5.87;49.60;96947.75;5104024;28;20881;-84
2022/02/09 00:04:38;;;;;;;4.47;2.20;;;;;;;5.86;49.36;96948.66;5103585;28;20239;-85
2022/02/09 00:07:09;;;;;;;3.80;2.30;;;;;;;5.82;49.54;96951.56;5092309;28;20674;-85
2022/02/09 00:09:35;;;;;;;4.93;2.60;;;;;;;5.79;50.37;96950.03;5092974;28;20311;-82
2022/02/09 00:12:07;;;;;;;4.03;2.73;;;;;;;5.76;49.71;96946.91;5092359;28;20192;-83
2022/02/09 00:14:42;;;;;;;2.70;2.20;;;;;;;5.77;49.93;96946.78;5093118;28;20210;-83
2022/02/09 00:17:27;;;;;;;2.77;2.23;;;;;;;5.80;49.07;96953.41;5095560;28;20219;-82
2022/02/09 00:20:16;;;;;;;3.87;1.97;;;;;;;5.85;49.37;96947.03;5109445;28;20336;-82
2022/02/09 00:23:11;;;;;;;3.43;2.00;;;;;;;5.87;49.13;96950.28;5109507;28;20210;-82
2022/02/09 00:26:28;;;;;;;1.93;1.60;;;;;;;5.86;48.96;96953.78;5108687;27;20227;-84
2022/02/09 00:28:44;;;;;;;4.03;1.90;;;;;;;5.88;48.74;96958.78;5092824;28;20222;-83
2022/02/09 00:37:14;;;;;;;1.73;1.43;;;;;;;5.80;48.99;96966.19;5095819;28;20239;-82
2022/02/09 00:40:02;;;;;;;2.00;1.80;;;;;;;5.79;49.12;96975.59;5108757;28;20216;-82
2022/02/09 00:42:45;;;;;;;1.70;1.60;;;;;;;5.79;48.79;96978.16;5109905;28;20195;-82
2022/02/09 01:38:07;;;;;;;1.77;1.50;;;;;;;5.40;51.95;96958.06;5097078;28;20242;-84
2022/02/09 01:57:10;;;;;;;1.93;1.73;;;;;;;5.10;54.55;96964.44;5107876;28;20261;-83
2022/02/09 01:59:38;;;;;;;3.77;1.70;;;;;;;5.14;54.14;96957.38;5107772;28;20593;-83
2022/02/09 02:02:06;;;;;;;2.63;1.73;;;;;;;5.14;54.56;96963.31;5094123;28;20674;-85
2022/02/09 02:04:33;;;;;;;2.73;2.03;;;;;;;5.18;54.55;96957.06;5093565;28;20192;-82
2022/02/09 02:07:02;;;;;;;3.00;1.87;;;;;;;5.26;54.06;96956.50;5094308;27;20788;-83
2022/02/09 02:09:33;;;;;;;2.43;1.87;;;;;;;5.25;54.79;96959.16;5093464;28;20220;-82
2022/02/09 02:12:07;;;;;;;1.83;1.70;;;;;;;5.29;54.39;96953.72;5102735;28;20203;-86
2022/02/09 02:14:39;;;;;;;1.97;1.57;;;;;;;5.33;55.34;96957.69;5093786;28;20200;-85
2022/02/09 02:17:14;;;;;;;2.23;1.97;;;;;;;5.41;55.35;96955.38;5093389;28;20215;-85
2022/02/09 02:19:44;;;;;;;1.60;1.47;;;;;;;5.45;55.90;96950.88;5094821;28;20220;-84
2022/02/09 02:22:30;;;;;;;2.03;1.70;;;;;;;5.46;55.76;96948.22;5094298;28;20199;-84
2022/02/09 02:28:06;;;;;;;1.40;1.30;;;;;;;5.57;55.83;96944.91;5106888;28;20202;-85
2022/02/09 02:31:02;;;;;;;1.73;1.40;;;;;;;5.56;55.71;96943.28;5108119;28;20223;-84
2022/02/09 02:33:54;;;;;;;2.10;1.40;;;;;;;5.50;55.98;96944.53;5090540;28;20691;-85
2022/02/09 02:36:35;;;;;;;1.83;1.50;;;;;;;5.41;56.90;96937.50;5089860;28;20231;-85
2022/02/09 02:39:23;;;;;;;1.77;1.30;;;;;;;5.46;56.34;96934.63;5099324;28;20287;-84
2022/02/09 02:47:43;;;;;;;1.97;1.30;;;;;;;5.55;56.18;96924.56;5093287;28;20200;-84
2022/02/09 03:09:45;;;;;;;1.37;1.20;;;;;;;5.77;56.17;96905.09;5102313;28;20302;-84
2022/02/09 03:12:17;;;;;;;1.60;1.40;;;;;;;5.78;56.36;96906.69;5107368;28;20192;-86
2022/02/09 03:14:50;;;;;;;2.13;1.60;;;;;;;5.81;56.41;96907.28;5105545;28;20511;-85
2022/02/09 03:17:21;;;;;;;1.60;1.50;;;;;;;5.83;56.35;96899.50;5096344;28;20219;-84
2022/02/09 03:19:54;;;;;;;1.50;1.40;;;;;;;5.82;56.09;96897.88;5105735;28;20436;-85
2022/02/09 03:22:25;;;;;;;1.57;1.47;;;;;;;5.82;56.32;96903.00;5107191;28;20195;-84
2022/02/09 03:30:52;;;;;;;1.57;1.40;;;;;;;5.82;55.91;96900.44;5102507;28;20222;-84
2022/02/09 03:31:02;;;;;;;1.90;1.43;;;;;;;5.81;56.47;96899.63;5092219;28;20587;-85
2022/02/09 03:44:47;;;;;;;2.47;1.20;;;;;;;5.73;56.18;96894.28;5092035;28;20291;-84
2022/02/09 03:47:26;;;;;;;3.10;1.50;;;;;;;5.74;56.03;96890.00;5092335;28;20915;-85
2022/02/09 03:53:00;;;;;;;1.30;1.20;;;;;;;5.65;57.07;96891.47;5098627;28;20690;-85
2022/02/09 03:55:39;;;;;;;1.40;1.30;;;;;;;5.63;57.25;96882.28;5091700;28;20280;-85
2022/02/09 03:58:06;;;;;;;2.90;1.40;;;;;;;5.63;56.88;96872.06;5106364;28;20212;-85
2022/02/09 04:00:38;;;;;;;1.47;1.37;;;;;;;5.57;57.60;96872.56;5106515;28;20268;-84
2022/02/09 04:03:10;;;;;;;1.20;1.10;;;;;;;5.55;57.27;96873.47;5105493;28;20832;-84
2022/02/09 04:05:36;;;;;;;1.30;1.20;;;;;;;5.51;57.76;96866.97;5105604;28;20812;-84
2022/02/09 04:08:05;;;;;;;1.20;1.10;;;;;;;5.49;57.85;96868.00;5105659;28;20196;-85
2022/02/09 04:10:37;;;;;;;1.80;1.20;;;;;;;5.49;57.40;96857.78;5106515;28;20215;-84
2022/02/09 04:13:13;;;;;;;2.30;1.23;;;;;;;5.48;57.78;96858.72;5105407;28;20192;-85
2022/02/09 04:15:51;;;;;;;1.20;1.10;;;;;;;5.44;57.47;96855.56;5105679;28;20642;-86
2022/02/09 04:18:31;;;;;;;1.40;1.30;;;;;;;5.41;58.02;96852.41;5091901;28;20690;-84
2022/02/09 04:37:32;;;;;;;1.20;1.10;;;;;;;5.05;59.17;96843.97;5100907;28;20230;-84
2022/02/09 04:40:04;;;;;;;1.30;1.20;;;;;;;5.03;59.26;96840.72;5093112;28;20219;-84
2022/02/09 04:42:53;;;;;;;1.27;1.07;;;;;;;5.06;59.58;96842.25;5092086;28;20257;-85
2022/02/09 04:45:45;;;;;;;2.87;1.17;;;;;;;5.11;59.13;96837.63;5100226;28;20306;-84
2022/02/09 04:48:35;;;;;;;1.07;0.97;;;;;;;5.05;59.38;96831.22;5107384;28;20283;-84
2022/02/09 04:51:14;;;;;;;1.23;1.10;;;;;;;5.05;59.71;96828.66;5097615;28;20210;-85
2022/02/09 04:56:32;;;;;;;1.23;1.13;;;;;;;4.95;59.98;96830.28;5105719;28;20229;-84
2022/02/09 04:59:11;;;;;;;1.30;1.20;;;;;;;4.94;60.06;96836.28;5104690;28;20223;-84
2022/02/09 05:02:17;;;;;;;1.20;1.10;;;;;;;4.83;60.34;96837.06;5106571;28;20594;-85
2022/02/09 05:05:02;;;;;;;1.27;1.17;;;;;;;4.77;61.08;96834.16;5108416;28;20195;-85
2022/02/09 05:18:53;;;;;;;2.20;1.30;;;;;;;4.67;61.83;96825.50;5098473;28;20919;-84
2022/02/09 05:21:36;;;;;;;1.33;1.23;;;;;;;4.67;62.02;96821.22;5114742;28;20187;-87
2022/02/09 05:24:11;;;;;;;1.23;1.13;;;;;;;4.72;61.84;96819.16;5112372;28;20200;-86
2022/02/09 05:26:41;;;;;;;1.20;1.10;;;;;;;4.73;61.21;96820.78;5112867;27;20227;-84
2022/02/09 05:29:08;;;;;;;1.27;1.17;;;;;;;4.80;61.06;96816.88;5109326;28;20215;-86
2022/02/09 05:31:34;;;;;;;1.37;1.20;;;;;;;4.78;61.71;96821.28;5098862;28;20681;-84
2022/02/09 05:34:01;;;;;;;1.67;1.13;;;;;;;4.72;61.37;96818.34;5102772;28;20188;-87
2022/02/09 05:36:28;;;;;;;1.40;1.30;;;;;;;4.75;61.83;96816.41;5117531;28;20235;-86
2022/02/09 05:38:56;;;;;;;1.37;1.27;;;;;;;4.74;61.96;96817.31;5117317;28;20223;-87
2022/02/09 05:41:23;;;;;;;1.53;1.17;;;;;;;4.79;61.90;96824.66;5110050;27;20210;-86
2022/02/09 05:43:49;;;;;;;1.53;1.40;;;;;;;4.85;61.34;96821.63;5112528;28;20281;-86
2022/02/09 05:49:32;;;;;;;1.47;1.30;;;;;;;4.90;61.62;96823.84;5109228;28;20597;-85
2022/02/09 05:52:03;;;;;;;3.37;1.30;;;;;;;4.88;61.16;96820.59;5115024;28;20267;-86
2022/02/09 05:54:48;;;;;;;1.40;1.30;;;;;;;4.82;61.80;96825.22;5115273;28;20697;-84
2022/02/09 05:57:27;;;;;;;1.17;1.10;;;;;;;4.81;61.49;96825.34;5114435;28;20803;-85
2022/02/09 05:59:53;;;;;;;1.40;1.30;;;;;;;4.75;62.16;96818.13;5113645;28;20455;-86
2022/02/09 06:02:21;;;;;;;1.40;1.20;;;;;;;4.77;62.05;96824.75;5115476;28;20199;-86
2022/02/09 06:04:48;;;;;;;1.50;1.40;;;;;;;4.74;62.09;96819.88;5115121;28;20202;-84
2022/02/09 06:07:20;;;;;;;1.43;1.33;;;;;;;4.71;62.09;96816.72;5113997;28;20752;-85
2022/02/09 06:09:46;;;;;;;1.60;1.30;;;;;;;4.68;61.71;96815.19;5110955;28;20239;-86
2022/02/09 06:12:19;;;;;;;1.37;1.27;;;;;;;4.68;62.35;96820.28;5115186;28;20199;-84
2022/02/09 06:15:03;;;;;;;2.37;1.53;;;;;;;4.73;62.10;96819.97;5111145;27;20203;-86
2022/02/09 06:20:17;;;;;;;1.40;1.30;;;;;;;4.74;62.13;96822.41;5100512;28;20218;-85
2022/02/09 06:22:45;;;;;;;1.40;1.30;;;;;;;4.76;62.10;96818.03;5099640;28;20952;-84
2022/02/09 06:25:11;;;;;;;1.33;1.23;;;;;;;4.72;62.45;96826.00;5098196;28;20228;-85
2022/02/09 06:27:38;;;;;;;1.30;1.20;;;;;;;4.72;61.96;96821.72;5098467;28;20220;-85
2022/02/09 06:30:05;;;;;;;1.60;1.50;;;;;;;4.69;63.17;96831.31;5099350;28;20200;-85
2022/02/09 06:32:31;;;;;;;1.70;1.30;;;;;;;4.72;63.09;96831.09;5098415;28;20215;-85
2022/02/09 06:34:58;;;;;;;1.90;1.40;;;;;;;4.77;62.64;96831.59;5096719;28;20207;-85
2022/02/09 06:37:35;;;;;;;1.80;1.20;;;;;;;4.72;62.92;96837.03;5069608;28;20238;-84
2022/02/09 06:40:04;;;;;;;1.70;1.53;;;;;;;4.68;63.65;96839.88;5063893;28;20219;-85
2022/02/09 06:42:31;;;;;;;1.33;1.23;;;;;;;4.69;63.19;96836.41;5078243;28;20679;-85
2022/02/09 06:45:04;;;;;;;2.87;1.60;;;;;;;4.67;64.16;96831.41;5081196;28;20205;-85
2022/02/09 06:47:31;;;;;;;2.07;1.57;;;;;;;4.69;64.02;96832.13;5099208;28;20330;-85
2022/02/09 06:50:00;;;;;;;11.33;7.93;;;;;;;4.74;63.67;96832.63;5098949;28;20200;-85
2022/02/09 06:52:27;;;;;;;5.87;4.57;;;;;;;4.82;63.05;96835.41;5099353;28;20204;-85
2022/02/09 06:55:11;;;;;;;3.93;3.30;;;;;;;4.85;62.34;96840.31;5097414;28;20847;-85
2022/02/09 06:58:00;;;;;;;2.83;2.00;;;;;;;4.90;62.38;96840.00;5098450;28;20262;-84
2022/02/09 07:00:28;;;;;;;2.27;1.53;;;;;;;4.89;62.56;96835.00;5099023;28;20197;-85
2022/02/09 07:02:55;;;;;;;1.93;1.53;;;;;;;4.86;62.58;96841.13;5079437;28;20579;-85
2022/02/09 07:05:22;;;;;;;2.27;1.63;;;;;;;4.94;62.35;96843.13;5077133;28;20241;-85
2022/02/09 07:07:48;;;;;;;2.80;1.67;;;;;;;5.15;61.45;96836.47;5077239;28;20250;-84
2022/02/09 07:10:15;;;;;;;2.30;1.50;;;;;;;5.39;60.96;96844.88;5076714;28;20226;-84
2022/02/09 07:12:43;;;;;;;1.73;1.60;;;;;;;5.58;60.06;96838.41;5076432;28;20698;-85
2022/02/09 07:15:13;;;;;;;2.17;1.57;;;;;;;5.63;60.03;96834.56;5075865;28;20232;-84
2022/02/09 07:17:40;;;;;;;3.47;1.70;;;;;;;5.83;59.36;96825.41;5076079;28;20224;-85
2022/02/09 07:20:13;;;;;;;1.80;1.53;;;;;;;6.11;58.88;96824.16;5075670;28;20250;-85
2022/02/09 07:22:39;;;;;;;1.93;1.73;;;;;;;6.54;57.68;96814.72;5076549;28;20250;-85
2022/02/09 07:25:11;;;;;;;2.70;1.40;;;;;;;6.89;56.80;96809.38;5074792;28;20228;-85
2022/02/09 07:27:48;;;;;;;2.03;1.57;;;;;;;7.32;55.17;96816.13;5076374;28;20218;-85
2022/02/09 07:30:16;;;;;;;1.50;1.40;;;;;;;7.90;54.44;96809.50;5075502;28;20200;-84
2022/02/09 07:32:42;;;;;;;1.37;1.27;;;;;;;8.13;52.72;96814.44;5075848;28;20295;-84
2022/02/09 07:35:09;;;;;;;2.57;1.50;;;;;;;8.51;52.80;96806.84;5074559;28;20293;-85
2022/02/09 07:37:35;;;;;;;2.03;1.40;;;;;;;8.85;51.75;96811.63;5075960;28;20221;-85
2022/02/09 07:40:05;;;;;;;1.40;1.30;;;;;;;9.04;50.87;96809.03;5075317;28;20235;-84
2022/02/09 07:42:33;;;;;;;1.87;1.67;;;;;;;9.20;50.61;96804.16;5076266;28;20216;-85
2022/02/09 07:45:19;;;;;;;1.87;1.57;;;;;;;9.42;50.00;96812.50;5075985;28;20339;-86
2022/02/09 07:48:00;;;;;;;3.20;1.80;;;;;;;9.70;50.10;96809.84;5076438;28;20246;-85
2022/02/09 07:50:38;;;;;;;1.70;1.60;;;;;;;9.88;49.63;96806.50;5075904;28;20208;-85
2022/02/09 07:53:11;;;;;;;1.90;1.70;;;;;;;10.00;49.04;96811.34;5076327;28;20219;-85
2022/02/09 07:55:38;;;;;;;2.07;1.60;;;;;;;10.14;48.47;96794.63;5074943;28;20224;-85
2022/02/09 07:58:05;;;;;;;1.67;1.57;;;;;;;10.08;48.24;96795.19;5075183;28;20231;-85
2022/02/09 08:00:32;;;;;;;3.23;2.13;;;;;;;10.31;48.81;96795.63;5075520;28;20219;-85
2022/02/09 08:03:00;;;;;;;2.70;1.73;;;;;;;10.39;47.85;96788.00;5075186;28;20197;-84
2022/02/09 08:05:26;;;;;;;3.70;1.60;;;;;;;10.53;47.89;96790.06;5074460;28;20637;-85
2022/02/09 08:07:53;;;;;;;2.00;1.50;;;;;;;10.74;47.59;96789.78;5075229;28;20225;-85
2022/02/09 08:10:27;;;;;;;2.47;1.47;;;;;;;10.81;46.68;96795.94;5076103;28;20201;-84
2022/02/09 08:24:23;;;;;;;1.73;1.40;;;;;;;11.32;45.81;96787.50;5096109;28;20325;-85
2022/02/09 08:27:06;;;;;;;1.87;1.70;;;;;;;11.60;45.13;96785.53;5096786;28;20273;-84
2022/02/09 08:29:44;;;;;;;3.63;1.80;;;;;;;11.82;44.73;96786.81;5096142;28;20359;-85
2022/02/09 08:32:37;;;;;;;3.23;1.60;;;;;;;12.08;44.26;96787.59;5095701;28;20200;-85
2022/02/09 08:35:06;;;;;;;5.67;1.70;;;;;;;12.38;44.53;96785.41;5098432;28;20244;-84
2022/02/09 08:37:32;;;;;;;2.47;1.57;;;;;;;12.41;44.18;96785.09;5111393;28;20239;-85
2022/02/09 08:39:58;;;;;;;2.50;1.90;;;;;;;12.35;44.55;96783.94;5083430;28;20676;-85
2022/02/09 08:42:26;;;;;;;1.60;1.50;;;;;;;12.31;43.96;96790.41;5080593;28;20599;-85
2022/02/09 08:44:53;;;;;;;4.50;2.20;;;;;;;12.18;44.18;96795.19;5079718;28;20203;-84
2022/02/09 08:47:20;;;;;;;10.07;7.20;;;;;;;12.09;44.64;96785.81;5079591;28;20783;-85
2022/02/09 08:49:47;;;;;;;4.60;2.10;;;;;;;11.91;45.17;96783.31;5083333;28;20200;-84
2022/02/09 08:52:15;;;;;;;1.50;1.23;;;;;;;11.47;46.10;96784.34;5100564;28;20539;-85
2022/02/09 08:54:52;;;;;;;2.33;1.80;;;;;;;11.11;46.96;96778.47;5096874;28;20215;-84
2022/02/09 08:57:20;;;;;;;2.43;1.37;;;;;;;11.12;47.16;96780.91;5079994;28;20236;-85
2022/02/09 08:59:49;;;;;;;1.30;1.10;;;;;;;11.34;47.05;96774.44;5080281;28;20672;-85
2022/02/09 09:02:19;;;;;;;3.27;1.30;;;;;;;11.49;47.19;96772.91;5065920;28;20199;-85
2022/02/09 09:04:50;;;;;;;1.80;1.20;;;;;;;11.41;46.91;96778.03;5058464;28;20722;-85
2022/02/09 09:07:23;;;;;;;2.43;1.40;;;;;;;11.34;47.32;96769.28;5076941;28;20221;-85
2022/02/09 09:10:00;;;;;;;3.10;1.70;;;;;;;11.21;47.63;96774.84;5079758;28;20762;-85
2022/02/09 10:02:09;;;;;;;1.70;1.50;;;;;;;12.69;43.64;96759.78;5065692;28;20265;-85
2022/02/09 10:04:55;;;;;;;2.33;1.60;;;;;;;12.78;43.72;96757.03;5057702;28;20248;-85
2022/02/09 10:33:06;;;;;;;2.33;1.10;;;;;;;12.88;41.26;96762.06;5077158;28;20204;-85
2022/02/09 10:35:36;;;;;;;4.07;1.40;;;;;;;13.02;41.68;96756.22;5076091;28;20278;-85
2022/02/09 10:38:23;;;;;;;1.60;1.40;;;;;;;13.08;41.15;96750.38;5077031;28;20672;-85
2022/02/09 10:40:52;;;;;;;2.70;1.23;;;;;;;13.16;40.89;96747.03;5076761;28;20224;-84
2022/02/09 10:43:31;;;;;;;2.67;1.13;;;;;;;13.31;40.15;96742.78;5076220;28;20224;-85
2022/02/09 10:46:16;;;;;;;2.40;1.20;;;;;;;13.43;39.49;96731.13;5076563;28;20232;-85
2022/02/09 10:48:50;;;;;;;1.80;1.27;;;;;;;13.49;39.17;96733.03;5077534;28;20197;-85
2022/02/09 10:51:29;;;;;;;1.43;1.20;;;;;;;13.56;39.09;96722.84;5075709;28;20247;-85
2022/02/09 10:54:08;;;;;;;1.33;1.20;;;;;;;13.52;36.95;96725.94;5075869;28;20228;-85
2022/02/09 10:56:36;;;;;;;1.30;1.20;;;;;;;13.48;36.39;96728.03;5077465;28;20238;-85
2022/02/09 10:59:05;;;;;;;6.33;4.37;;;;;;;13.46;35.35;96728.22;5075659;28;20252;-85
2022/02/09 11:01:33;;;;;;;4.63;3.20;;;;;;;13.44;35.62;96725.00;5068326;28;20323;-84
2022/02/09 11:04:00;;;;;;;1.50;1.30;;;;;;;13.34;36.06;96718.38;5067207;28;20216;-85
2022/02/09 11:06:29;;;;;;;1.80;1.40;;;;;;;13.24;36.68;96720.34;5076798;28;20252;-85
2022/02/09 11:08:56;;;;;;;1.80;1.20;;;;;;;13.06;36.33;96723.09;5076188;28;20209;-84
2022/02/09 11:11:22;;;;;;;4.10;1.53;;;;;;;13.07;36.30;96725.53;5077251;28;20204;-84
2022/02/09 11:13:49;;;;;;;3.27;1.20;;;;;;;13.09;36.35;96730.50;5074958;28;20196;-84
2022/02/09 11:16:17;;;;;;;3.23;1.10;;;;;;;13.10;36.33;96717.41;5075770;28;20239;-85
2022/02/09 11:18:47;;;;;;;10.73;1.40;;;;;;;13.30;37.17;96715.31;5075777;28;20260;-85
2022/02/09 11:21:15;;;;;;;1.53;1.20;;;;;;;13.27;36.43;96713.09;5081696;28;20207;-85
2022/02/09 11:23:45;;;;;;;2.53;1.20;;;;;;;13.31;36.45;96710.94;5086888;28;20215;-85
2022/02/09 11:26:35;;;;;;;1.77;1.30;;;;;;;13.32;36.86;96704.81;5079497;28;20236;-85
2022/02/09 11:29:25;;;;;;;1.87;1.10;;;;;;;13.31;36.22;96709.16;5079108;28;20224;-85
2022/02/09 11:32:35;;;;;;;4.63;1.30;;;;;;;13.43;36.55;96697.50;5079296;28;20208;-85
2022/02/09 11:35:13;;;;;;;2.10;1.37;;;;;;;13.53;36.65;96697.31;5078044;28;20228;-85
2022/02/09 11:37:53;;;;;;;2.07;1.50;;;;;;;13.58;36.92;96692.44;5079664;28;20213;-85
2022/02/09 11:40:23;;;;;;;1.13;1.03;;;;;;;13.53;37.34;96694.72;5078985;28;20292;-84
2022/02/09 11:42:58;;;;;;;2.97;1.30;;;;;;;13.42;38.01;96689.91;5078217;28;20284;-84
2022/02/09 11:45:58;;;;;;;1.63;1.10;;;;;;;13.43;37.48;96678.59;5078258;28;20227;-85
2022/02/09 11:51:35;;;;;;;1.23;1.10;;;;;;;13.58;37.56;96676.91;5077054;28;20204;-85
2022/02/09 12:00:01;;;;;;;1.90;1.03;;;;;;;13.40;38.33;96664.22;5075927;28;20223;-84
2022/02/09 12:11:09;;;;;;;1.70;1.20;;;;;;;13.67;39.23;96665.53;5076290;28;20211;-83
2022/02/09 12:13:51;;;;;;;4.00;1.30;;;;;;;13.78;38.93;96648.84;5079168;28;20205;-82
2022/02/09 12:16:35;;;;;;;1.87;1.10;;;;;;;13.79;38.68;96647.84;5078245;28;20688;-83
2022/02/09 12:19:06;;;;;;;1.23;1.13;;;;;;;13.69;38.84;96648.06;5080621;28;20224;-83
2022/02/09 12:21:46;;;;;;;1.47;1.10;;;;;;;13.62;39.23;96643.75;5080306;28;20633;-83
2022/02/09 12:24:32;;;;;;;1.60;1.10;;;;;;;13.65;39.28;96644.22;5080472;28;20200;-83
2022/02/09 12:27:03;;;;;;;1.80;0.97;;;;;;;13.91;39.10;96635.31;5078714;28;20240;-83
2022/02/09 12:29:33;;;;;;;3.77;1.20;;;;;;;14.13;39.01;96629.34;5080134;28;20196;-84
2022/02/09 12:32:00;;;;;;;1.33;1.00;;;;;;;14.26;38.18;96628.75;5078852;28;20477;-83
2022/02/09 12:34:29;;;;;;;1.40;1.13;;;;;;;14.33;38.14;96625.31;5079097;28;20641;-83
2022/02/09 12:36:56;;;;;;;1.40;0.80;;;;;;;14.47;38.08;96621.19;5078933;28;20232;-83
2022/02/09 12:39:26;;;;;;;2.57;0.97;;;;;;;14.63;38.57;96620.22;5081353;28;20224;-84
2022/02/09 12:41:59;;;;;;;3.27;1.10;;;;;;;14.74;38.02;96618.03;5079918;28;20212;-83
2022/02/09 12:44:25;;;;;;;2.00;1.67;;;;;;;14.75;38.17;96614.47;5078651;28;20201;-83
2022/02/09 12:46:52;;;;;;;13.10;10.93;;;;;;;14.69;38.31;96616.94;5079067;28;20603;-84
2022/02/09 12:49:19;;;;;;;2.70;2.20;;;;;;;14.77;38.52;96609.09;5080915;28;20196;-83
2022/02/09 12:51:50;;;;;;;3.20;1.30;;;;;;;14.83;37.53;96608.38;5082084;28;20211;-84
2022/02/09 12:54:19;;;;;;;1.10;1.00;;;;;;;14.92;37.71;96611.69;5080823;28;20227;-84
2022/02/09 12:56:51;;;;;;;0.80;0.80;;;;;;;15.02;38.17;96602.66;5082271;28;20232;-84
2022/02/09 12:59:20;;;;;;;1.07;0.90;;;;;;;15.07;37.92;96602.94;5082529;28;20293;-84
2022/02/09 13:01:51;;;;;;;3.07;1.20;;;;;;;15.06;38.35;96605.69;5072327;28;20198;-84
2022/02/09 13:04:37;;;;;;;1.60;1.00;;;;;;;15.08;38.40;96595.94;5061337;28;20212;-84
2022/02/09 13:07:07;;;;;;;3.67;1.00;;;;;;;15.09;38.86;96593.19;5061359;28;20232;-84
2022/02/09 13:09:35;;;;;;;2.42;1.17;;;;;;;15.15;38.66;96589.88;5062012;28;20208;-84
2022/02/09 13:12:04;;;;;;;1.10;0.70;;;;;;;15.25;38.77;96593.97;5078519;28;20205;-84
2022/02/09 13:14:35;;;;;;;1.80;1.30;;;;;;;15.34;38.84;96583.31;5081451;28;20232;-84
2022/02/09 13:17:31;;;;;;;1.52;0.82;;;;;;;15.34;38.77;96583.31;5081048;28;20247;-83
2022/02/09 14:13:34;;;;;;;1.02;0.90;;;;;;;16.13;39.54;96553.00;5091741;28;20196;-85
2022/02/09 14:19:12;;;;;;;2.75;0.70;;;;;;;16.06;39.22;96546.94;4999792;28;20281;-84
2022/02/09 14:35:45;;;;;;;0.98;0.73;;;;;;;15.96;39.43;96530.06;5080368;28;20595;-85
2022/02/09 14:54:53;;;;;;;2.38;0.80;;;;;;;15.66;40.16;96517.22;5061350;28;20574;-84
2022/02/09 14:57:24;;;;;;;0.70;0.70;;;;;;;15.61;40.54;96524.75;5068161;28;20224;-84
2022/02/09 15:00:04;;;;;;;2.65;1.02;;;;;;;15.65;40.40;96518.19;5068916;28;20221;-84
2022/02/09 15:02:46;;;;;;;1.48;0.75;;;;;;;15.59;40.13;96520.75;5074071;28;20207;-84
2022/02/09 15:05:41;;;;;;;1.70;0.90;;;;;;;15.57;40.44;96517.53;5066261;28;20703;-84
2022/02/09 15:08:18;;;;;;;1.13;0.80;;;;;;;15.47;40.22;96512.59;5072575;28;20608;-84
2022/02/09 15:10:50;;;;;;;0.80;0.80;;;;;;;15.28;40.57;96515.78;5070411;28;20213;-84
2022/02/09 15:13:30;;;;;;;2.65;0.90;;;;;;;15.18;40.77;96516.88;5074241;28;20193;-83
2022/02/09 15:16:05;;;;;;;2.38;0.90;;;;;;;15.05;41.28;96508.91;5073259;28;20809;-84
2022/02/09 15:19:02;;;;;;;3.08;1.40;;;;;;;14.98;41.16;96510.66;5057912;28;20228;-84
2022/02/09 15:21:49;;;;;;;1.63;1.10;;;;;;;14.90;41.54;96502.97;5063636;28;20228;-83
2022/02/09 15:24:16;;;;;;;3.92;1.10;;;;;;;14.82;41.63;96497.84;5073913;28;20276;-84
2022/02/09 15:26:44;;;;;;;2.72;1.08;;;;;;;14.78;41.93;96505.22;5075607;28;20289;-83
2022/02/09 15:29:15;;;;;;;2.38;0.90;;;;;;;14.70;42.13;96502.69;5064832;28;20209;-84
2022/02/09 15:31:46;;;;;;;4.45;1.67;;;;;;;14.69;42.21;96502.88;5063686;28;20610;-85
2022/02/09 15:34:16;;;;;;;4.32;1.27;;;;;;;14.55;42.63;96499.31;5071666;28;20247;-83
2022/02/09 15:36:53;;;;;;;2.05;1.10;;;;;;;14.50;42.75;96496.44;5073843;28;20229;-84
2022/02/09 15:39:23;;;;;;;4.13;1.07;;;;;;;14.58;42.89;96488.59;5062649;28;20217;-84
2022/02/09 15:42:07;;;;;;;1.57;1.00;;;;;;;14.67;42.85;96484.91;5064947;28;20197;-83
2022/02/09 15:58:34;;;;;;;4.32;3.58;;;;;;;14.35;42.51;96493.81;5071037;28;20216;-84
2022/02/09 16:06:55;;;;;;;4.03;1.40;;;;;;;13.89;43.40;96485.31;5066839;28;20242;-84
2022/02/09 16:09:25;;;;;;;1.27;1.00;;;;;;;13.73;44.12;96485.47;5058678;28;20271;-84
2022/02/09 16:18:12;;;;;;;3.03;1.37;;;;;;;13.40;44.78;96490.06;5062429;28;20240;-84
2022/02/09 16:23:26;;;;;;;4.57;1.60;;;;;;;13.19;45.17;96477.75;5071015;28;20946;-84
2022/02/09 16:26:03;;;;;;;3.73;1.40;;;;;;;13.09;45.02;96480.50;5060523;28;20603;-84
2022/02/09 16:34:23;;;;;;;5.73;1.60;;;;;;;12.83;46.56;96484.38;5069903;28;20216;-84
2022/02/09 16:45:00;;;;;;;6.33;2.57;;;;;;;12.58;46.88;96486.22;5062339;28;20208;-84
2022/02/09 16:47:47;;;;;;;7.77;1.90;;;;;;;12.45;47.28;96489.34;5071339;28;20216;-85
2022/02/09 16:50:17;;;;;;;8.87;2.27;;;;;;;12.33;47.57;96493.22;5058768;28;20297;-84
2022/02/09 16:52:52;;;;;;;5.07;2.33;;;;;;;12.19;48.26;96494.72;5069705;28;20262;-85
2022/02/09 17:19:57;;;;;;;6.17;2.50;;;;;;;11.28;50.82;96481.94;5066336;28;20216;-85
2022/02/09 17:22:24;;;;;;;10.80;3.80;;;;;;;11.20;51.25;96479.34;5068315;28;20208;-84
2022/02/09 17:24:50;;;;;;;9.90;3.70;;;;;;;11.19;51.14;96479.50;5064762;28;20213;-85
2022/02/09 17:27:19;;;;;;;13.20;4.30;;;;;;;11.09;52.22;96477.06;5065201;28;20228;-84
2022/02/09 17:30:04;;;;;;;17.33;4.17;;;;;;;11.01;51.93;96477.03;5061947;28;20198;-84
2022/02/09 17:32:45;;;;;;;13.40;4.40;;;;;;;10.95;51.87;96482.84;5070143;28;20217;-84
2022/02/09 17:35:17;;;;;;;11.30;4.00;;;;;;;10.92;52.29;96483.16;5075102;28;20243;-85
2022/02/09 17:38:16;;;;;;;10.27;4.37;;;;;;;10.93;52.09;96488.16;5067354;28;20715;-85
2022/02/09 17:55:19;;;;;;;21.50;5.13;;;;;;;10.45;53.34;96477.63;5069678;28;20275;-84
2022/02/09 17:57:30;;;;;;;18.07;5.13;;;;;;;10.39;53.28;96474.69;5074179;28;20256;-84
2022/02/09 18:00:09;;;;;;;16.33;4.63;;;;;;;10.35;53.19;96472.59;5075229;28;20216;-84
2022/02/09 18:02:36;;;;;;;16.60;4.70;;;;;;;10.22;53.97;96480.72;5078696;28;20228;-84
2022/02/09 18:05:09;;;;;;;16.43;4.80;;;;;;;10.17;54.05;96482.13;5075257;28;20225;-83
2022/02/09 18:07:38;;;;;;;16.23;5.07;;;;;;;10.14;53.85;96483.22;5060011;28;20240;-84
2022/02/09 18:10:14;;;;;;;20.77;4.40;;;;;;;10.13;54.34;96483.38;5065815;28;20190;-84
2022/02/09 18:12:56;;;;;;;17.03;5.13;;;;;;;10.04;54.49;96488.47;5065425;28;20280;-84
2022/02/09 18:15:43;;;;;;;12.67;4.33;;;;;;;9.97;55.39;96479.75;5066378;28;20221;-84
2022/02/09 18:27:07;;;;;;;16.53;5.57;;;;;;;9.63;56.41;96473.69;5074032;28;20228;-83
2022/02/09 18:29:28;;;;;;;14.97;6.20;;;;;;;9.57;56.07;96474.28;5072615;28;20232;-83
2022/02/09 18:32:11;;;;;;;16.77;7.60;;;;;;;9.60;55.87;96479.13;5069837;28;20207;-84
2022/02/09 18:37:41;;;;;;;18.03;6.33;;;;;;;9.59;55.73;96477.53;5079884;28;20279;-83
2022/02/09 18:38:04;;;;;;;15.97;5.77;;;;;;;9.51;56.02;96477.44;5078976;28;20292;-83
2022/02/09 18:43:20;;;;;;;17.60;6.20;;;;;;;9.43;56.13;96470.47;5078919;28;20524;-84
2022/02/09 18:45:52;;;;;;;14.97;5.93;;;;;;;9.41;56.79;96471.59;5078107;28;20589;-83
2022/02/09 18:48:52;;;;;;;19.17;6.13;;;;;;;9.42;56.79;96463.72;5072809;28;20235;-83
2022/02/09 18:59:48;;;;;;;20.43;6.90;;;;;;;9.30;56.65;96457.19;5074604;28;20232;-84
2022/02/09 19:02:37;;;;;;;16.07;6.70;;;;;;;9.22;56.89;96455.34;5067580;28;20198;-83
2022/02/09 19:05:19;;;;;;;14.60;6.30;;;;;;;9.17;57.17;96452.41;5075920;28;20228;-84
2022/02/09 19:18:52;;;;;;;13.70;7.03;;;;;;;8.92;58.11;96443.66;5061863;28;20240;-83
2022/02/09 19:27:17;;;;;;;12.07;6.83;;;;;;;8.88;57.65;96451.78;5072027;28;20232;-83
2022/02/09 19:29:57;;;;;;;13.30;7.30;;;;;;;8.87;57.87;96447.59;5058017;28;20225;-83
2022/02/09 19:32:58;;;;;;;12.17;7.23;;;;;;;8.89;57.92;96451.63;5058410;28;20283;-83
2022/02/09 19:41:55;;;;;;;10.80;6.43;;;;;;;8.78;57.84;96440.78;5058413;28;20228;-83
2022/02/09 19:46:53;;;;;;;13.43;7.13;;;;;;;8.83;57.67;96452.22;5058387;28;20526;-83
2022/02/09 19:49:34;;;;;;;10.27;7.80;;;;;;;8.76;57.85;96456.31;5059626;28;20202;-83
2022/02/09 19:52:09;;;;;;;11.80;8.43;;;;;;;8.77;57.82;96457.13;5057912;28;20207;-83
2022/02/09 19:54:46;;;;;;;12.47;7.73;;;;;;;8.75;57.24;96453.88;5059054;28;20207;-84
2022/02/09 19:57:13;;;;;;;10.73;6.77;;;;;;;8.76;56.98;96465.78;5069109;28;20216;-83
2022/02/09 19:59:42;;;;;;;9.57;6.73;;;;;;;8.74;56.94;96463.34;5075916;28;20192;-84
2022/02/09 20:02:11;;;;;;;9.90;6.43;;;;;;;8.77;56.58;96452.78;5078056;28;20196;-84
2022/02/09 20:04:38;;;;;;;7.90;6.20;;;;;;;8.73;56.81;96451.47;5077281;28;20199;-84
2022/02/09 20:07:06;;;;;;;10.27;5.77;;;;;;;8.75;56.29;96441.84;5077181;28;20303;-84